createdAt,value
2018-11-05T00:00:38.717Z,100606.00
2018-11-05T00:05:34.013Z,100605.00
2018-11-05T00:10:27.997Z,100618.00
2018-11-05T00:15:21.285Z,100610.00
2018-11-05T00:20:14.563Z,100595.00
2018-11-05T00:25:10.871Z,100586.00
2018-11-05T00:30:04.415Z,100572.00
2018-11-05T00:34:57.759Z,100569.00
2018-11-05T00:39:51.042Z,100572.00
2018-11-05T00:44:44.304Z,100563.00
2018-11-05T00:49:37.576Z,100562.00
2018-11-05T00:54:30.799Z,100560.00
2018-11-05T00:59:24.111Z,100552.00
2018-11-05T01:04:17.406Z,100548.00
2018-11-05T01:09:10.619Z,100551.00
2018-11-05T01:14:04.404Z,100544.00
2018-11-05T01:18:57.649Z,100542.00
2018-11-05T01:23:50.981Z,100539.00
2018-11-05T01:28:44.269Z,100543.00
2018-11-05T01:33:38.375Z,100540.00
2018-11-05T01:38:32.275Z,100538.00
2018-11-05T01:43:26.170Z,100538.00
2018-11-05T01:48:19.945Z,100530.00
2018-11-05T01:53:13.216Z,100514.00
2018-11-05T01:58:06.757Z,100512.00
2018-11-05T02:03:00.020Z,100497.00
2018-11-05T02:07:53.313Z,100497.00
2018-11-05T02:12:46.629Z,100492.00
2018-11-05T02:17:41.414Z,100493.00
2018-11-05T02:22:34.945Z,100495.00
2018-11-05T02:27:28.623Z,100494.00
2018-11-05T02:32:21.862Z,100492.00
2018-11-05T02:37:15.124Z,100494.00
2018-11-05T02:42:08.401Z,100492.00
2018-11-05T02:47:01.707Z,100483.00
2018-11-05T02:51:55.747Z,100478.00
2018-11-05T02:56:49.007Z,100473.00
2018-11-05T03:01:42.287Z,100475.00
2018-11-05T03:06:35.588Z,100471.00
2018-11-05T03:11:28.843Z,100466.00
2018-11-05T03:16:22.647Z,100466.00
2018-11-05T03:21:15.872Z,100464.00
2018-11-05T03:26:09.288Z,100468.00
2018-11-05T03:31:02.539Z,100479.00
2018-11-05T03:35:55.884Z,100461.00
2018-11-05T03:40:49.168Z,100452.00
2018-11-05T03:45:42.491Z,100460.00
2018-11-05T03:50:35.744Z,100447.00
2018-11-05T03:55:29.185Z,100456.00
2018-11-05T04:00:22.395Z,100457.00
2018-11-05T04:05:15.663Z,100442.00
2018-11-05T04:10:10.413Z,100459.00
2018-11-05T04:15:03.953Z,100445.00
2018-11-05T04:19:57.252Z,100457.00
2018-11-05T04:24:50.515Z,100457.00
2018-11-05T04:29:43.828Z,100455.00
2018-11-05T04:34:37.109Z,100451.00
2018-11-05T04:39:30.343Z,100455.00
2018-11-05T04:44:23.602Z,100448.00
2018-11-05T04:49:16.893Z,100447.00
2018-11-05T04:54:10.158Z,100448.00
2018-11-05T04:59:03.599Z,100438.00
2018-11-05T05:03:56.893Z,100426.00
2018-11-05T05:08:50.154Z,100414.00
2018-11-05T05:13:43.453Z,100422.00
2018-11-05T05:18:36.841Z,100425.00
2018-11-05T05:23:30.106Z,100422.00
2018-11-05T05:28:24.033Z,100415.00
2018-11-05T05:33:17.346Z,100398.00
2018-11-05T05:38:10.679Z,100410.00
2018-11-05T05:43:04.225Z,100419.00
2018-11-05T05:47:57.989Z,100429.00
2018-11-05T05:52:51.240Z,100430.00
2018-11-05T05:57:45.123Z,100436.00
2018-11-05T06:02:38.743Z,100439.00
2018-11-05T06:07:32.153Z,100431.00
2018-11-05T06:12:25.445Z,100429.00
2018-11-05T06:17:18.714Z,100426.00
2018-11-05T06:22:12.062Z,100423.00
2018-11-05T06:27:05.445Z,100428.00
2018-11-05T06:31:58.713Z,100431.00
2018-11-05T06:36:51.985Z,100435.00
2018-11-05T06:41:46.298Z,100435.00
2018-11-05T06:46:39.545Z,100425.00
2018-11-05T06:51:32.819Z,100420.00
2018-11-05T06:56:26.062Z,100425.00
2018-11-05T07:01:19.353Z,100424.00
2018-11-05T07:06:12.662Z,100430.00
2018-11-05T07:11:05.920Z,100428.00
2018-11-05T07:15:59.174Z,100429.00
2018-11-05T07:20:52.395Z,100425.00
2018-11-05T07:25:45.824Z,100420.00
2018-11-05T07:30:39.132Z,100437.00
2018-11-05T07:35:32.411Z,100435.00
2018-11-05T07:40:25.675Z,100432.00
2018-11-05T07:45:20.262Z,100418.00
2018-11-05T07:50:14.926Z,100414.00
2018-11-05T07:55:11.288Z,100420.00
2018-11-05T08:00:13.523Z,100417.00
2018-11-05T08:05:07.049Z,100424.00
2018-11-05T08:10:00.302Z,100415.00
2018-11-05T08:14:53.689Z,100411.00
2018-11-05T08:19:47.026Z,100414.00
2018-11-05T08:24:40.291Z,100401.00
2018-11-05T08:29:33.575Z,100401.00
2018-11-05T08:34:26.941Z,100395.00
2018-11-05T08:39:20.169Z,100397.00
2018-11-05T08:44:13.514Z,100385.00
2018-11-05T08:49:07.043Z,100381.00
2018-11-05T08:54:00.593Z,100386.00
2018-11-05T08:58:53.865Z,100380.00
2018-11-05T09:03:49.137Z,100363.00
2018-11-05T09:08:42.741Z,100372.00
2018-11-05T09:13:36.043Z,100364.00
2018-11-05T09:18:29.408Z,100358.00
2018-11-05T09:23:22.892Z,100357.00
2018-11-05T09:28:16.234Z,100356.00
2018-11-05T09:33:09.529Z,100361.00
2018-11-05T09:38:02.977Z,100353.00
2018-11-05T09:42:56.482Z,100364.00
2018-11-05T09:47:49.754Z,100362.00
2018-11-05T09:52:43.185Z,100361.00
2018-11-05T09:57:36.561Z,100378.00
2018-11-05T10:02:35.558Z,100373.00
2018-11-05T10:07:28.806Z,100376.00
2018-11-05T10:12:22.264Z,100363.00
2018-11-05T10:17:15.515Z,100355.00
2018-11-05T10:22:08.851Z,100353.00
2018-11-05T10:27:02.296Z,100352.00
2018-11-05T10:31:55.568Z,100346.00
2018-11-05T10:36:50.485Z,100334.00
2018-11-05T10:41:43.822Z,100327.00
2018-11-05T10:46:37.437Z,100323.00
2018-11-05T10:51:30.815Z,100320.00
2018-11-05T10:56:24.115Z,100309.00
2018-11-05T11:01:22.064Z,100312.00
2018-11-05T11:06:15.364Z,100314.00
2018-11-05T11:11:08.835Z,100318.00
2018-11-05T11:16:02.157Z,100314.00
2018-11-05T11:20:55.377Z,100330.00
2018-11-05T11:25:48.722Z,100317.00
2018-11-05T11:30:42.148Z,100324.00
2018-11-05T11:35:35.421Z,100303.00
2018-11-05T11:40:28.772Z,100302.00
2018-11-05T11:45:22.770Z,100284.00
2018-11-05T11:50:16.784Z,100278.00
2018-11-05T11:55:12.709Z,100292.00
2018-11-05T12:00:11.791Z,100285.00
2018-11-05T12:05:06.686Z,100275.00
2018-11-05T12:09:59.922Z,100265.00
2018-11-05T12:14:53.425Z,100260.00
2018-11-05T12:19:46.631Z,100257.00
2018-11-05T12:24:39.911Z,100273.00
2018-11-05T12:29:33.270Z,100263.00
2018-11-05T12:34:26.542Z,100253.00
2018-11-05T12:39:19.783Z,100242.00
2018-11-05T12:44:13.217Z,100237.00
2018-11-05T12:49:06.535Z,100239.00
2018-11-05T12:53:59.870Z,100250.00
2018-11-05T12:58:53.282Z,100240.00
2018-11-05T13:03:46.677Z,100243.00
2018-11-05T13:08:39.915Z,100238.00
2018-11-05T13:13:33.975Z,100230.00
2018-11-05T13:18:27.310Z,100220.00
2018-11-05T13:23:27.296Z,100222.00
2018-11-05T13:28:20.629Z,100221.00
2018-11-05T13:33:13.855Z,100214.00
2018-11-05T13:38:07.648Z,100226.00
2018-11-05T13:43:00.420Z,100231.00
2018-11-05T13:47:54.817Z,100220.00
2018-11-05T13:52:47.021Z,100215.00
2018-11-05T13:57:41.071Z,100197.00
2018-11-05T14:02:34.278Z,100191.00
2018-11-05T14:07:34.673Z,100197.00
2018-11-05T14:12:27.966Z,100189.00
2018-11-05T14:17:21.258Z,100182.00
2018-11-05T14:22:14.569Z,100180.00
2018-11-05T14:27:07.885Z,100178.00
2018-11-05T14:32:01.285Z,100179.00
2018-11-05T14:36:54.633Z,100168.00
2018-11-05T14:41:47.813Z,100176.00
2018-11-05T14:46:41.174Z,100183.00
2018-11-05T14:51:34.785Z,100186.00
2018-11-05T14:56:28.053Z,100183.00
2018-11-05T15:01:21.320Z,100182.00
2018-11-05T15:06:14.633Z,100185.00
2018-11-05T15:11:07.972Z,100195.00
2018-11-05T15:16:01.280Z,100200.00
2018-11-05T15:20:54.575Z,100199.00
2018-11-05T15:25:47.908Z,100195.00
2018-11-05T15:30:41.455Z,100199.00
2018-11-05T15:35:34.764Z,100205.00
2018-11-05T15:40:28.061Z,100200.00
2018-11-05T15:45:21.919Z,100203.00
2018-11-05T15:50:16.436Z,100201.00
2018-11-05T15:55:10.050Z,100185.00
2018-11-05T16:00:04.212Z,100186.00
2018-11-05T16:04:57.460Z,100191.00
2018-11-05T16:09:50.781Z,100195.00
2018-11-05T16:14:44.205Z,100202.00
2018-11-05T16:19:37.506Z,100204.00
2018-11-05T16:24:30.876Z,100206.00
2018-11-05T16:29:24.097Z,100201.00
2018-11-05T16:34:17.365Z,100202.00
2018-11-05T16:39:12.331Z,100203.00
2018-11-05T16:44:06.726Z,100209.00
2018-11-05T16:49:00.013Z,100212.00
2018-11-05T16:53:54.827Z,100219.00
2018-11-05T16:58:48.349Z,100225.00
2018-11-05T17:03:41.917Z,100223.00
2018-11-05T17:08:36.559Z,100223.00
2018-11-05T17:13:29.914Z,100218.00
2018-11-05T17:18:23.671Z,100211.00
2018-11-05T17:23:17.029Z,100210.00
2018-11-05T17:28:10.333Z,100215.00
2018-11-05T17:33:03.614Z,100205.00
2018-11-05T17:37:56.871Z,100214.00
2018-11-05T17:42:50.175Z,100205.00
2018-11-05T17:47:43.747Z,100203.00
2018-11-05T17:52:37.103Z,100199.00
2018-11-05T17:57:30.409Z,100211.00
2018-11-05T18:02:24.832Z,100214.00
2018-11-05T18:07:18.193Z,100203.00
2018-11-05T18:12:11.569Z,100205.00
2018-11-05T18:17:05.476Z,100205.00
2018-11-05T18:21:58.845Z,100205.00
2018-11-05T18:26:52.131Z,100200.00
2018-11-05T18:31:45.420Z,100200.00
2018-11-05T18:36:38.684Z,100198.00
2018-11-05T18:41:31.930Z,100195.00
2018-11-05T18:46:25.225Z,100196.00
2018-11-05T18:51:18.515Z,100191.00
2018-11-05T18:56:11.842Z,100183.00
2018-11-05T19:01:05.148Z,100189.00
2018-11-05T19:05:58.548Z,100202.00
2018-11-05T19:10:52.003Z,100212.00
2018-11-05T19:15:45.438Z,100216.00
2018-11-05T19:20:38.781Z,100213.00
2018-11-05T19:25:33.225Z,100216.00
2018-11-05T19:30:27.411Z,100225.00
2018-11-05T19:35:20.614Z,100219.00
2018-11-05T19:40:14.753Z,100214.00
2018-11-05T19:45:10.957Z,100211.00
2018-11-05T19:50:06.108Z,100199.00
2018-11-05T19:54:59.328Z,100201.00
2018-11-05T19:59:52.633Z,100192.00
2018-11-05T20:04:45.936Z,100185.00
2018-11-05T20:09:39.256Z,100197.00
2018-11-05T20:14:32.625Z,100194.00
2018-11-05T20:19:25.993Z,100192.00
2018-11-05T20:24:19.357Z,100196.00
2018-11-05T20:29:12.645Z,100206.00
2018-11-05T20:34:06.090Z,100214.00
2018-11-05T20:38:59.245Z,100215.00
2018-11-05T20:43:52.545Z,100222.00
2018-11-05T20:48:45.795Z,100226.00
2018-11-05T20:53:39.077Z,100219.00
2018-11-05T20:58:32.345Z,100211.00
2018-11-05T21:03:27.141Z,100225.00
2018-11-05T21:08:20.513Z,100233.00
2018-11-05T21:13:13.899Z,100219.00
2018-11-05T21:18:07.295Z,100206.00
2018-11-05T21:23:00.554Z,100201.00
2018-11-05T21:27:53.822Z,100207.00
2018-11-05T21:32:47.175Z,100211.00
2018-11-05T21:37:40.735Z,100213.00
2018-11-05T21:42:33.947Z,100216.00
2018-11-05T21:47:27.300Z,100210.00
2018-11-05T21:52:20.570Z,100224.00
2018-11-05T21:57:13.823Z,100215.00
2018-11-05T22:02:07.138Z,100209.00
2018-11-05T22:07:00.424Z,100204.00
2018-11-05T22:11:53.714Z,100210.00
2018-11-05T22:16:46.972Z,100206.00
2018-11-05T22:21:40.284Z,100212.00
2018-11-05T22:26:33.550Z,100213.00
2018-11-05T22:31:26.918Z,100202.00
2018-11-05T22:36:20.275Z,100200.00
2018-11-05T22:41:13.564Z,100203.00
2018-11-05T22:46:06.911Z,100216.00
2018-11-05T22:51:00.161Z,100214.00
2018-11-05T22:55:53.435Z,100210.00
2018-11-05T23:00:52.374Z,100222.00
2018-11-05T23:05:45.767Z,100220.00
2018-11-05T23:10:39.067Z,100222.00
2018-11-05T23:15:33.499Z,100227.00
2018-11-05T23:20:26.787Z,100221.00
2018-11-05T23:25:20.079Z,100224.00
2018-11-05T23:30:13.645Z,100234.00
2018-11-05T23:35:07.835Z,100246.00
2018-11-05T23:40:01.115Z,100239.00
2018-11-05T23:44:54.393Z,100237.00
2018-11-05T23:49:47.671Z,100233.00
2018-11-05T23:54:40.944Z,100237.00
2018-11-05T23:59:34.222Z,100240.00
